Time;durP1;ratioP1;P1;durP2;ratioP2;P2;SDS_P1;SDS_P2;PMS_P1;PMS_P2;Temp;Humidity;BMP_temperature;BMP_pressure;BME280_temperature;BME280_humidity;BME280_pressure;Samples;Min_cycle;Max_cycle;Signal;HPM_P1;HPM_P2
2022/06/13 00:00:47;;;;;;;9.97;3.93;;;15.00;99.90;;;;;;5043370;28;20194;-75
2022/06/13 00:03:32;;;;;;;15.50;3.83;;;15.00;99.90;;;;;;5047100;28;20312;-76
2022/06/13 00:06:17;;;;;;;13.50;3.90;;;14.90;99.90;;;;;;5044907;28;20755;-75
2022/06/13 00:09:03;;;;;;;11.33;4.13;;;14.80;99.90;;;;;;5033329;28;20230;-75
2022/06/13 00:11:48;;;;;;;12.63;4.20;;;14.80;99.90;;;;;;5039728;28;20195;-75
2022/06/13 00:14:35;;;;;;;12.07;4.80;;;14.70;99.90;;;;;;5043685;28;20264;-75
2022/06/13 00:17:19;;;;;;;11.43;4.43;;;14.60;99.90;;;;;;5039129;28;20264;-75
2022/06/13 00:20:16;;;;;;;;;;;;;;;;;;;;;
2022/06/13 00:23:11;;;;;;;13.30;4.33;;;14.40;99.90;;;;;;5023804;28;20266;-75
2022/06/13 00:25:58;;;;;;;9.40;4.37;;;14.40;99.90;;;;;;5024798;28;20578;-76
2022/06/13 00:28:42;;;;;;;13.13;4.13;;;14.40;99.90;;;;;;5019898;28;20221;-75
2022/06/13 00:31:29;;;;;;;9.83;4.07;;;14.40;99.90;;;;;;5024389;28;20267;-76
2022/06/13 00:34:14;;;;;;;8.63;4.20;;;14.40;99.90;;;;;;5021804;28;20192;-76
2022/06/13 00:36:59;;;;;;;13.50;4.80;;;14.30;99.90;;;;;;5024865;28;20188;-75
2022/06/13 00:39:44;;;;;;;13.03;4.17;;;14.30;99.90;;;;;;5020398;28;20194;-75
2022/06/13 00:42:46;;;;;;;12.50;4.60;;;14.20;99.90;;;;;;5027219;28;20188;-75
2022/06/13 00:45:36;;;;;;;15.97;4.87;;;14.10;99.90;;;;;;5023852;28;20731;-75
2022/06/13 00:48:36;;;;;;;7.93;3.90;;;14.10;99.90;;;;;;5025318;28;20222;-76
2022/06/13 00:51:22;;;;;;;12.43;4.90;;;14.10;99.90;;;;;;5029668;28;20222;-75
2022/06/13 00:54:06;;;;;;;10.23;4.67;;;14.00;99.90;;;;;;5031846;28;20188;-76
2022/06/13 00:56:51;;;;;;;12.23;5.10;;;14.00;99.90;;;;;;5026502;28;20187;-76
2022/06/13 00:59:37;;;;;;;8.23;4.57;;;14.00;99.90;;;;;;5024249;28;20211;-75
2022/06/13 01:02:25;;;;;;;11.97;5.37;;;13.90;99.90;;;;;;5027584;28;20223;-75
2022/06/13 01:05:15;;;;;;;15.17;5.40;;;13.90;99.90;;;;;;5030298;28;20242;-75
2022/06/13 01:08:20;;;;;;;15.73;5.23;;;13.90;99.90;;;;;;5035444;28;20218;-75
2022/06/13 01:11:33;;;;;;;13.93;5.20;;;13.80;99.90;;;;;;5029787;28;20219;-76
2022/06/13 01:15:07;;;;;;;;;;;;;;;;;;;;;
2022/06/13 01:18:15;;;;;;;14.10;5.50;;;13.80;99.90;;;;;;5047441;28;20245;-75
2022/06/13 01:21:20;;;;;;;14.73;4.77;;;13.70;99.90;;;;;;5053947;28;20190;-75
2022/06/13 01:24:45;;;;;;;8.57;5.10;;;13.70;99.90;;;;;;5053222;28;20205;-75
2022/06/13 01:27:44;;;;;;;12.53;5.50;;;13.70;99.90;;;;;;5046894;28;20202;-76
2022/06/13 01:30:44;;;;;;;11.50;5.17;;;13.70;99.90;;;;;;5046292;28;20217;-75
2022/06/13 01:33:33;;;;;;;13.63;5.30;;;13.60;99.90;;;;;;5053869;28;20178;-75
2022/06/13 01:36:36;;;;;;;16.17;6.27;;;13.60;99.90;;;;;;5045490;28;20202;-75
2022/06/13 01:40:04;;;;;;;12.17;5.60;;;13.60;99.90;;;;;;5057085;28;20233;-75
2022/06/13 01:42:58;;;;;;;8.37;4.90;;;13.60;99.90;;;;;;5054526;28;20196;-75
2022/06/13 01:45:49;;;;;;;18.93;6.37;;;13.60;99.90;;;;;;5056224;28;20232;-76
2022/06/13 01:49:02;;;;;;;17.70;5.87;;;13.50;99.90;;;;;;5055040;28;20218;-75
2022/06/13 01:51:56;;;;;;;17.87;5.87;;;13.50;99.90;;;;;;5050750;28;20193;-75
2022/06/13 01:54:47;;;;;;;10.90;5.00;;;13.50;99.90;;;;;;5049917;28;20186;-75
2022/06/13 01:57:45;;;;;;;13.50;5.60;;;13.50;99.90;;;;;;5048332;28;20209;-75
2022/06/13 02:00:34;;;;;;;13.00;5.10;;;13.50;99.90;;;;;;5060400;28;20198;-75
2022/06/13 02:03:28;;;;;;;16.10;5.47;;;13.50;99.90;;;;;;5049808;28;20202;-74
2022/06/13 02:06:30;;;;;;;11.23;5.50;;;13.50;99.90;;;;;;5052968;28;20207;-76
2022/06/13 02:09:26;;;;;;;12.53;5.47;;;13.50;99.90;;;;;;5053758;28;20305;-75
2022/06/13 02:12:13;;;;;;;13.07;5.60;;;13.50;99.90;;;;;;5053954;28;20194;-75
2022/06/13 02:15:10;;;;;;;15.13;5.60;;;13.50;99.90;;;;;;5048822;28;20226;-75
2022/06/13 02:18:02;;;;;;;9.73;4.97;;;13.50;99.90;;;;;;5051796;28;20234;-75
2022/06/13 02:20:51;;;;;;;10.63;5.37;;;13.50;99.90;;;;;;5047850;28;20214;-75
2022/06/13 02:23:42;;;;;;;12.10;5.03;;;13.50;99.90;;;;;;5055648;28;20201;-75
2022/06/13 02:26:34;;;;;;;10.47;5.50;;;13.50;99.90;;;;;;5049135;28;20186;-76
2022/06/13 02:29:27;;;;;;;10.40;4.90;;;13.50;99.90;;;;;;5051717;28;20226;-75
2022/06/13 02:32:23;;;;;;;14.30;5.43;;;13.50;99.90;;;;;;5046005;28;20218;-75
2022/06/13 02:35:11;;;;;;;10.87;5.23;;;13.50;99.90;;;;;;5054001;28;20185;-75
2022/06/13 02:38:29;;;;;;;9.80;5.10;;;13.40;99.90;;;;;;5063760;28;20708;-75
2022/06/13 02:41:22;;;;;;;10.63;5.50;;;13.50;99.90;;;;;;5052858;28;20244;-75
2022/06/13 02:44:20;;;;;;;11.17;5.63;;;13.40;99.90;;;;;;5056492;28;20692;-74
2022/06/13 02:47:22;;;;;;;8.17;4.80;;;13.40;99.90;;;;;;5052945;28;20213;-75
2022/06/13 02:50:37;;;;;;;14.30;5.27;;;13.40;99.90;;;;;;5049500;28;20282;-75
2022/06/13 02:53:45;;;;;;;13.80;5.53;;;13.40;99.90;;;;;;5054226;28;20266;-75
2022/06/13 02:56:36;;;;;;;12.77;5.33;;;13.40;99.90;;;;;;5051165;28;20174;-75
2022/06/13 02:59:37;;;;;;;12.20;4.90;;;13.40;99.90;;;;;;5057877;28;20237;-76
2022/06/13 03:02:47;;;;;;;13.93;5.17;;;13.40;99.90;;;;;;5044667;28;20173;-75
2022/06/13 03:05:40;;;;;;;9.23;5.03;;;13.40;99.90;;;;;;5039808;28;20187;-75
2022/06/13 03:08:35;;;;;;;13.83;5.60;;;13.40;99.90;;;;;;5054291;28;20226;-76
2022/06/13 03:11:37;;;;;;;15.87;5.20;;;13.30;99.90;;;;;;5049553;28;20550;-75
2022/06/13 03:14:46;;;;;;;11.60;5.03;;;13.30;99.90;;;;;;5048811;28;20180;-75
2022/06/13 03:17:40;;;;;;;8.03;4.90;;;13.40;99.90;;;;;;5064119;28;20297;-75
2022/06/13 03:20:35;;;;;;;9.47;4.90;;;13.40;99.90;;;;;;5047800;28;20182;-75
2022/06/13 03:23:23;;;;;;;11.57;4.87;;;13.40;99.90;;;;;;5052420;28;20218;-75
2022/06/13 03:26:14;;;;;;;17.13;7.00;;;13.40;99.90;;;;;;5063322;28;20194;-75
2022/06/13 03:29:33;;;;;;;12.33;5.30;;;13.40;99.90;;;;;;5049714;28;20349;-75
2022/06/13 03:32:23;;;;;;;12.63;5.27;;;13.50;99.90;;;;;;5053871;28;20183;-75
2022/06/13 03:35:12;;;;;;;9.93;4.67;;;13.40;99.90;;;;;;5055290;28;20201;-75
2022/06/13 03:37:57;;;;;;;12.73;5.17;;;13.40;99.90;;;;;;5051697;28;20700;-75
2022/06/13 03:40:47;;;;;;;10.73;4.77;;;13.40;99.90;;;;;;5050068;28;20194;-74
2022/06/13 03:43:44;;;;;;;11.27;4.43;;;13.40;99.90;;;;;;5048128;28;20227;-74
2022/06/13 03:46:49;;;;;;;8.37;4.73;;;13.40;99.90;;;;;;5049112;28;20183;-75
2022/06/13 03:49:41;;;;;;;12.07;5.07;;;13.40;99.90;;;;;;5039696;28;20285;-76
2022/06/13 03:52:29;;;;;;;9.43;5.10;;;13.40;99.90;;;;;;5048595;28;20197;-73
2022/06/13 03:55:29;;;;;;;12.40;4.50;;;13.40;99.90;;;;;;5049218;28;20181;-73
2022/06/13 03:58:18;;;;;;;9.80;4.90;;;13.40;99.90;;;;;;5047252;28;20280;-73
2022/06/13 04:01:14;;;;;;;11.57;4.77;;;13.40;99.90;;;;;;5050059;28;20185;-73
2022/06/13 04:04:01;;;;;;;7.43;4.50;;;13.40;99.90;;;;;;5048917;28;20225;-73
2022/06/13 04:06:47;;;;;;;9.57;4.60;;;13.40;99.90;;;;;;5042944;28;20214;-74
2022/06/13 04:09:39;;;;;;;9.87;5.10;;;13.40;99.90;;;;;;5047566;28;20213;-74
2022/06/13 04:12:32;;;;;;;10.20;4.30;;;13.40;99.90;;;;;;5051311;28;20720;-73
2022/06/13 04:15:35;;;;;;;7.83;4.50;;;13.40;99.90;;;;;;5048920;28;20236;-74
2022/06/13 04:18:28;;;;;;;8.63;4.93;;;13.40;99.90;;;;;;5057382;28;20275;-74
2022/06/13 04:21:47;;;;;;;12.10;4.77;;;13.40;99.90;;;;;;5065951;28;20209;-74
2022/06/13 04:24:37;;;;;;;12.80;4.87;;;13.40;99.90;;;;;;5048882;28;20713;-74
2022/06/13 04:27:26;;;;;;;11.47;4.47;;;13.40;99.90;;;;;;5049624;28;20260;-74
2022/06/13 04:30:15;;;;;;;8.83;4.80;;;13.40;99.90;;;;;;5054669;28;20185;-74
2022/06/13 04:33:17;;;;;;;12.57;5.43;;;13.50;99.90;;;;;;5055655;28;20213;-74
2022/06/13 04:36:03;;;;;;;11.70;4.67;;;13.50;99.90;;;;;;5049700;28;20178;-74
2022/06/13 04:38:52;;;;;;;13.77;5.27;;;13.50;99.90;;;;;;5056974;28;20225;-74
2022/06/13 04:41:40;;;;;;;11.00;4.80;;;13.50;99.90;;;;;;5048210;28;20186;-74
2022/06/13 04:44:29;;;;;;;15.50;5.10;;;13.50;99.90;;;;;;5052857;28;20197;-74
2022/06/13 04:47:16;;;;;;;14.33;4.87;;;13.60;99.90;;;;;;5052869;28;20280;-74
2022/06/13 04:50:03;;;;;;;7.40;4.90;;;13.60;99.90;;;;;;5054473;28;20186;-76
2022/06/13 04:52:51;;;;;;;8.10;4.50;;;13.60;99.90;;;;;;5055040;28;20182;-76
2022/06/13 04:55:42;;;;;;;10.37;4.53;;;13.60;99.90;;;;;;5054725;28;20194;-76
2022/06/13 04:58:33;;;;;;;9.83;5.13;;;13.60;99.90;;;;;;5058730;28;20586;-75
2022/06/13 05:01:23;;;;;;;10.27;4.97;;;13.70;99.90;;;;;;5056792;28;20181;-76
2022/06/13 05:04:14;;;;;;;9.10;5.10;;;13.70;99.90;;;;;;5054957;28;20193;-76
2022/06/13 05:07:21;;;;;;;14.57;4.60;;;13.80;99.90;;;;;;5050996;28;20186;-76
2022/06/13 05:10:13;;;;;;;10.33;5.00;;;13.80;99.90;;;;;;5056028;28;20185;-75
2022/06/13 05:12:58;;;;;;;12.70;4.90;;;13.90;99.90;;;;;;5051872;28;20660;-77
2022/06/13 05:15:48;;;;;;;12.67;4.80;;;14.00;99.90;;;;;;5055423;28;20217;-78
2022/06/13 05:18:40;;;;;;;12.33;4.80;;;14.00;99.90;;;;;;5050134;28;20221;-81
2022/06/13 05:22:02;;;;;;;11.50;4.87;;;14.00;99.90;;;;;;5058063;28;20174;-78
2022/06/13 05:25:15;;;;;;;8.90;5.00;;;14.10;99.90;;;;;;5063007;28;20268;-73
2022/06/13 05:27:59;;;;;;;7.97;4.73;;;14.10;99.90;;;;;;5047847;28;20234;-74
2022/06/13 05:30:47;;;;;;;11.73;5.07;;;14.20;99.90;;;;;;5054543;28;20217;-75
2022/06/13 05:33:35;;;;;;;13.80;4.73;;;14.20;99.90;;;;;;5058031;28;20209;-75
2022/06/13 05:36:24;;;;;;;11.50;4.83;;;14.30;99.90;;;;;;5053059;28;20252;-74
2022/06/13 05:39:08;;;;;;;12.70;4.50;;;14.30;99.90;;;;;;5065919;28;20271;-74
2022/06/13 05:41:53;;;;;;;13.03;4.63;;;14.30;99.90;;;;;;5060759;28;20185;-75
2022/06/13 05:44:37;;;;;;;13.67;4.83;;;14.40;99.90;;;;;;5054459;28;20197;-75
2022/06/13 05:47:21;;;;;;;13.17;4.97;;;14.40;99.90;;;;;;5067785;28;20210;-75
2022/06/13 05:50:09;;;;;;;9.87;4.20;;;14.50;99.90;;;;;;5059203;28;20317;-75
2022/06/13 05:52:53;;;;;;;15.53;4.73;;;14.50;99.90;;;;;;5045654;28;20199;-75
2022/06/13 05:55:37;;;;;;;11.17;4.03;;;14.50;99.90;;;;;;5057337;28;20747;-74
2022/06/13 05:58:24;;;;;;;11.83;4.70;;;14.60;99.90;;;;;;5051949;28;20213;-75
2022/06/13 06:01:13;;;;;;;8.27;4.17;;;14.60;99.90;;;;;;5064610;28;20224;-75
2022/06/13 06:03:57;;;;;;;14.10;4.40;;;14.60;99.90;;;;;;5051886;28;20261;-75
2022/06/13 06:06:41;;;;;;;14.50;4.73;;;14.70;99.90;;;;;;5053498;28;20210;-76
2022/06/13 06:09:29;;;;;;;8.93;4.10;;;14.70;99.90;;;;;;5048153;28;20210;-74
2022/06/13 06:12:14;;;;;;;11.23;3.73;;;14.70;99.90;;;;;;5054341;28;20186;-75
2022/06/13 06:14:58;;;;;;;12.53;4.20;;;14.70;99.90;;;;;;5054430;28;20194;-74
2022/06/13 06:17:43;;;;;;;12.30;3.97;;;14.80;99.90;;;;;;5062408;28;20257;-75
2022/06/13 06:20:27;;;;;;;11.70;4.43;;;14.90;99.90;;;;;;5052062;28;20252;-76
2022/06/13 06:23:13;;;;;;;7.03;3.73;;;14.90;99.90;;;;;;5054308;28;20188;-75
2022/06/13 06:25:58;;;;;;;8.77;4.03;;;15.00;99.90;;;;;;5049979;28;20218;-75
2022/06/13 06:28:43;;;;;;;10.27;3.87;;;15.10;99.90;;;;;;5053891;28;20226;-76
2022/06/13 06:31:27;;;;;;;11.07;4.27;;;15.20;99.90;;;;;;5062614;28;20564;-76
2022/06/13 06:34:15;;;;;;;13.93;4.10;;;15.30;99.90;;;;;;5040535;28;20236;-76
2022/06/13 06:37:00;;;;;;;9.27;3.80;;;15.40;99.90;;;;;;5055373;28;20233;-76
2022/06/13 06:39:44;;;;;;;8.87;3.57;;;15.50;99.90;;;;;;5057915;28;20229;-74
2022/06/13 06:42:28;;;;;;;12.73;3.50;;;15.60;99.90;;;;;;5053062;28;20213;-75
2022/06/13 06:45:13;;;;;;;6.83;3.80;;;15.60;99.90;;;;;;5064116;28;20198;-75
2022/06/13 06:47:58;;;;;;;8.13;3.87;;;15.70;99.90;;;;;;5068367;28;20210;-75
2022/06/13 06:50:44;;;;;;;11.03;3.87;;;15.70;99.90;;;;;;5087453;28;20178;-75
2022/06/13 06:59:53;;;;;;;10.17;4.00;;;15.90;99.90;;;;;;5076517;28;20193;-75
2022/06/13 06:59:54;;;;;;;11.77;4.07;;;16.00;99.90;;;;;;5077227;28;20233;-74
2022/06/13 07:02:38;;;;;;;12.83;4.07;;;16.20;99.90;;;;;;5072134;28;20201;-74
2022/06/13 07:05:22;;;;;;;9.57;3.73;;;16.40;99.90;;;;;;5065509;28;20193;-75
2022/06/13 07:08:07;;;;;;;9.07;3.13;;;16.40;99.90;;;;;;5066701;28;20246;-75
2022/06/13 07:10:51;;;;;;;11.77;3.77;;;16.40;99.90;;;;;;5070158;28;20182;-75
2022/06/13 07:13:35;;;;;;;7.00;3.20;;;16.50;99.90;;;;;;5055940;28;20568;-75
2022/06/13 07:16:20;;;;;;;8.00;2.87;;;16.60;99.90;;;;;;5049013;28;20212;-74
2022/06/13 07:19:04;;;;;;;11.90;3.00;;;16.60;99.90;;;;;;5055929;28;20696;-75
2022/06/13 07:21:48;;;;;;;11.90;2.70;;;16.70;99.90;;;;;;5052397;28;20186;-75
2022/06/13 07:24:32;;;;;;;8.83;2.80;;;16.70;99.90;;;;;;5066422;28;20194;-75
2022/06/13 07:27:17;;;;;;;6.17;2.83;;;16.70;99.90;;;;;;5049784;28;20972;-75
2022/06/13 07:30:02;;;;;;;5.77;3.10;;;16.70;99.90;;;;;;5051862;28;20228;-75
2022/06/13 07:32:47;;;;;;;6.13;2.47;;;16.70;99.90;;;;;;5053389;28;20181;-76
2022/06/13 07:35:32;;;;;;;7.67;2.63;;;16.70;99.90;;;;;;5050411;28;20217;-76
2022/06/13 07:38:16;;;;;;;6.87;2.23;;;16.80;99.90;;;;;;5053752;28;20272;-76
2022/06/13 07:41:01;;;;;;;7.90;3.07;;;16.90;99.90;;;;;;5069859;28;20181;-75
2022/06/13 07:43:45;;;;;;;4.63;2.40;;;16.90;99.90;;;;;;5049663;28;20272;-75
2022/06/13 07:46:30;;;;;;;5.83;2.10;;;16.90;99.90;;;;;;5062455;28;20217;-76
2022/06/13 07:49:15;;;;;;;4.97;2.17;;;17.00;99.90;;;;;;5055730;28;20217;-76
2022/06/13 07:51:59;;;;;;;7.53;2.33;;;17.00;99.90;;;;;;5047566;28;20202;-80
2022/06/13 07:54:43;;;;;;;4.83;2.00;;;17.10;99.90;;;;;;5053413;28;20241;-80
2022/06/13 07:57:28;;;;;;;7.30;2.00;;;17.20;99.90;;;;;;5053868;28;20183;-80
2022/06/13 08:00:35;;;;;;;6.03;1.97;;;17.30;99.90;;;;;;5058532;28;20293;-79
2022/06/13 08:03:27;;;;;;;3.43;1.73;;;17.40;99.90;;;;;;5061759;28;20181;-81
2022/06/13 08:06:13;;;;;;;5.63;2.17;;;17.50;99.90;;;;;;5057689;28;20659;-81
2022/06/13 08:08:57;;;;;;;5.23;1.73;;;17.60;99.90;;;;;;5053718;28;20225;-81
2022/06/13 08:11:50;;;;;;;8.73;1.90;;;17.60;99.90;;;;;;5052466;28;20712;-80
2022/06/13 08:14:39;;;;;;;7.43;1.80;;;17.60;99.90;;;;;;5049644;28;20178;-80
2022/06/13 08:17:26;;;;;;;5.87;2.23;;;17.60;99.90;;;;;;5058013;28;20268;-80
2022/06/13 08:20:11;;;;;;;5.03;1.70;;;17.60;99.90;;;;;;5054822;28;20712;-81
2022/06/13 08:22:58;;;;;;;6.47;1.97;;;17.60;99.90;;;;;;5051395;28;20254;-81
2022/06/13 08:25:43;;;;;;;3.70;1.50;;;17.60;99.90;;;;;;5051545;28;20187;-80
2022/06/13 08:28:28;;;;;;;5.00;1.47;;;17.50;99.90;;;;;;5048879;28;20348;-80
2022/06/13 08:31:15;;;;;;;5.97;1.60;;;17.50;99.90;;;;;;5054516;28;20182;-80
2022/06/13 08:34:04;;;;;;;2.90;2.10;;;17.50;99.90;;;;;;5051637;28;20205;-80
2022/06/13 08:36:48;;;;;;;11.47;2.47;;;17.40;99.90;;;;;;5051787;28;20212;-80
2022/06/13 08:39:35;;;;;;;4.70;1.70;;;17.30;99.90;;;;;;5052946;28;20233;-80
2022/06/13 08:42:39;;;;;;;3.83;1.60;;;17.40;99.90;;;;;;5052910;28;20213;-80
2022/06/13 08:45:47;;;;;;;7.13;1.63;;;17.50;99.90;;;;;;5053576;28;20236;-80
2022/06/13 08:48:40;;;;;;;4.13;1.57;;;17.60;99.90;;;;;;5050025;28;20214;-80
2022/06/13 08:51:47;;;;;;;13.17;1.90;;;17.60;99.90;;;;;;5053377;28;20185;-81
2022/06/13 08:54:37;;;;;;;3.13;1.13;;;17.60;99.90;;;;;;5050033;28;20183;-79
2022/06/13 08:57:26;;;;;;;15.70;2.20;;;17.60;99.90;;;;;;5047616;28;20229;-81
2022/06/13 09:00:18;;;;;;;7.27;1.47;;;17.50;99.90;;;;;;5054092;28;20681;-80
2022/06/13 09:03:12;;;;;;;2.47;0.73;;;17.60;99.90;;;;;;5059336;28;20194;-80
2022/06/13 09:06:02;;;;;;;4.77;0.80;;;17.70;99.90;;;;;;5062284;28;20210;-82
2022/06/13 09:08:59;;;;;;;6.30;0.83;;;17.80;99.90;;;;;;5059664;28;20264;-81
2022/06/13 09:12:02;;;;;;;4.10;0.77;;;17.90;99.90;;;;;;5059483;28;20189;-81
2022/06/13 09:15:10;;;;;;;6.03;0.83;;;18.00;99.90;;;;;;5049326;28;20190;-80
2022/06/13 09:18:14;;;;;;;1.77;0.87;;;18.00;99.90;;;;;;5054660;28;20252;-80
2022/06/13 09:21:10;;;;;;;1.97;0.80;;;18.00;99.90;;;;;;5055812;28;20244;-81
2022/06/13 09:24:30;;;;;;;8.13;0.93;;;18.10;99.90;;;;;;5059709;28;20190;-83
2022/06/13 09:27:19;;;;;;;3.90;1.17;;;18.10;99.90;;;;;;5054308;28;20292;-81
2022/06/13 09:30:11;;;;;;;0.90;0.60;;;18.10;99.90;;;;;;5056527;28;20209;-81
2022/06/13 09:32:58;;;;;;;3.30;0.53;;;18.00;99.90;;;;;;5058641;28;20255;-81
2022/06/13 09:35:56;;;;;;;2.20;0.70;;;18.00;99.90;;;;;;5053856;28;20232;-82
2022/06/13 09:38:50;;;;;;;6.43;1.10;;;17.80;99.90;;;;;;5058954;28;20236;-80
2022/06/13 09:42:02;;;;;;;4.27;0.87;;;17.80;99.90;;;;;;5061687;28;20354;-81
2022/06/13 09:45:17;;;;;;;1.80;0.60;;;17.60;99.90;;;;;;5057502;28;20186;-80
2022/06/13 09:48:16;;;;;;;1.57;0.57;;;17.50;99.90;;;;;;5059563;28;20214;-80
2022/06/13 09:51:21;;;;;;;2.40;0.67;;;17.40;99.90;;;;;;5056863;28;20274;-80
2022/06/13 09:54:12;;;;;;;1.93;0.60;;;17.30;99.90;;;;;;5060343;28;20197;-80
2022/06/13 09:57:22;;;;;;;2.77;1.00;;;17.10;99.90;;;;;;5059280;28;20186;-80
2022/06/13 10:00:31;;;;;;;2.90;0.90;;;16.90;99.90;;;;;;5062112;28;20194;-81
2022/06/13 10:03:44;;;;;;;1.57;0.60;;;16.70;99.90;;;;;;5066700;28;20182;-80
2022/06/13 10:06:39;;;;;;;7.00;1.47;;;16.70;99.90;;;;;;5067719;28;20189;-80
2022/06/13 10:09:44;;;;;;;2.27;0.70;;;16.70;99.90;;;;;;5074357;28;20234;-80
2022/06/13 10:12:51;;;;;;;1.47;0.80;;;16.70;99.90;;;;;;5095854;28;20243;-82
2022/06/13 10:16:03;;;;;;;4.27;0.73;;;16.70;99.90;;;;;;5069963;28;20205;-80
2022/06/13 10:19:12;;;;;;;3.10;0.60;;;16.70;99.90;;;;;;5074519;28;20222;-80
2022/06/13 10:22:12;;;;;;;1.00;0.57;;;16.70;99.90;;;;;;5078418;28;20174;-81
2022/06/13 10:25:25;;;;;;;1.97;0.60;;;16.70;99.90;;;;;;5063896;28;20190;-81
2022/06/13 10:28:28;;;;;;;1.67;0.60;;;16.80;99.90;;;;;;5046158;28;20222;-80
2022/06/13 10:31:25;;;;;;;4.10;0.80;;;16.90;99.90;;;;;;5075804;28;20177;-80
2022/06/13 10:34:26;;;;;;;1.93;0.57;;;16.90;99.90;;;;;;5055751;28;20684;-80
2022/06/13 10:37:47;;;;;;;4.60;0.80;;;16.90;99.90;;;;;;5053434;28;20193;-80
2022/06/13 10:40:32;;;;;;;1.97;0.57;;;17.10;99.90;;;;;;5055028;28;20228;-80
2022/06/13 10:43:16;;;;;;;3.83;0.80;;;17.10;99.90;;;;;;5053374;28;20189;-80
2022/06/13 10:46:01;;;;;;;1.53;0.83;;;17.10;99.90;;;;;;5051197;28;20205;-80
2022/06/13 10:49:13;;;;;;;3.63;0.70;;;17.20;99.90;;;;;;5047644;28;20302;-80
2022/06/13 10:52:02;;;;;;;2.13;0.80;;;17.30;99.90;;;;;;5055950;28;20259;-80
2022/06/13 10:54:57;;;;;;;2.50;0.80;;;17.40;99.90;;;;;;5065387;28;20681;-79
2022/06/13 10:57:45;;;;;;;3.30;0.90;;;17.40;99.90;;;;;;5061814;28;20287;-80
2022/06/13 11:00:30;;;;;;;2.70;0.70;;;17.30;99.90;;;;;;5052059;28;20236;-80
2022/06/13 11:03:18;;;;;;;8.07;1.10;;;17.40;99.90;;;;;;5057349;28;20244;-80
2022/06/13 11:06:14;;;;;;;2.10;0.50;;;17.40;99.90;;;;;;5052909;28;20190;-80
2022/06/13 11:09:00;;;;;;;3.50;0.50;;;17.50;99.90;;;;;;5056132;28;20264;-81
2022/06/13 11:11:45;;;;;;;2.10;0.80;;;17.60;99.90;;;;;;5056017;28;20197;-81
2022/06/13 11:22:37;;;;;;;2.67;0.60;;;17.70;99.90;;;;;;5055058;28;20542;-80
2022/06/13 11:24:01;;;;;;;0.97;0.50;;;17.80;99.90;;;;;;5062197;28;20198;-80
2022/06/13 11:30:18;;;;;;;1.93;0.90;;;17.90;99.90;;;;;;5065099;28;20190;-81
2022/06/13 11:33:10;;;;;;;8.37;1.90;;;18.00;99.90;;;;;;5050326;28;20194;-81
2022/06/13 11:35:56;;;;;;;1.80;0.70;;;18.10;99.90;;;;;;5047291;28;20197;-81
2022/06/13 11:39:13;;;;;;;3.03;0.73;;;18.20;99.90;;;;;;5054830;28;20222;-80
2022/06/13 11:42:01;;;;;;;5.70;1.67;;;18.30;99.90;;;;;;5013520;28;20197;-80
2022/06/13 11:44:51;;;;;;;7.47;1.20;;;18.40;99.90;;;;;;5051699;28;20296;-80
2022/06/13 11:47:49;;;;;;;1.17;0.50;;;18.50;99.90;;;;;;5047704;28;20252;-81
2022/06/13 11:50:36;;;;;;;4.73;0.70;;;18.40;99.90;;;;;;5051105;28;20193;-81
2022/06/13 11:53:36;;;;;;;13.07;1.77;;;18.10;99.90;;;;;;5051116;28;20237;-81
2022/06/13 11:56:29;;;;;;;3.73;0.80;;;18.10;99.90;;;;;;5049012;28;20182;-81
2022/06/13 11:59:17;;;;;;;3.73;0.67;;;18.00;99.90;;;;;;5054156;28;20701;-78
2022/06/13 12:02:02;;;;;;;1.93;0.90;;;17.90;99.90;;;;;;5046957;28;20573;-81
2022/06/13 12:04:47;;;;;;;3.87;0.80;;;18.00;99.90;;;;;;5051585;28;20279;-81
2022/06/13 12:07:32;;;;;;;2.33;1.00;;;18.10;99.90;;;;;;5045102;28;20205;-80
2022/06/13 12:10:23;;;;;;;6.40;0.83;;;18.10;99.90;;;;;;5054444;28;20225;-80
2022/06/13 12:13:16;;;;;;;7.77;1.40;;;18.30;99.90;;;;;;5051275;28;20538;-79
2022/06/13 12:16:27;;;;;;;2.00;0.60;;;18.30;99.90;;;;;;5051005;28;20198;-79
2022/06/13 12:19:27;;;;;;;4.90;0.73;;;18.40;99.90;;;;;;5067577;28;20225;-80
2022/06/13 12:22:23;;;;;;;7.67;1.17;;;18.40;99.90;;;;;;5052285;28;20199;-80
2022/06/13 12:25:13;;;;;;;4.60;1.10;;;18.30;99.90;;;;;;5047671;28;20216;-80
2022/06/13 12:28:14;;;;;;;7.80;1.23;;;18.30;99.90;;;;;;5053872;28;20252;-80
2022/06/13 12:31:33;;;;;;;2.37;0.80;;;18.30;99.90;;;;;;5041716;28;20209;-80
2022/06/13 12:34:32;;;;;;;5.07;0.93;;;18.40;99.90;;;;;;5017546;28;20263;-80
2022/06/13 12:37:39;;;;;;;1.30;0.80;;;18.40;99.90;;;;;;5059152;28;20285;-78
2022/06/13 12:40:35;;;;;;;2.07;0.57;;;18.50;99.90;;;;;;5051871;28;20643;-78
2022/06/13 12:43:59;;;;;;;8.87;1.13;;;18.50;99.90;;;;;;5055806;28;20313;-78
2022/06/13 12:46:59;;;;;;;8.83;1.40;;;18.50;99.90;;;;;;5067002;28;20187;-78
2022/06/13 12:49:47;;;;;;;1.50;0.60;;;18.60;99.90;;;;;;5055027;28;20218;-78
2022/06/13 12:52:37;;;;;;;3.97;1.13;;;18.60;99.90;;;;;;5051736;28;20186;-78
2022/06/13 12:55:40;;;;;;;20.70;2.90;;;18.70;99.90;;;;;;5051129;28;20175;-77
2022/06/13 12:59:03;;;;;;;3.67;0.87;;;18.70;99.90;;;;;;5071268;28;20217;-78
2022/06/13 13:02:21;;;;;;;5.88;1.38;;;18.90;99.90;;;;;;5064105;28;20189;-78
2022/06/13 13:05:25;;;;;;;10.00;1.47;;;19.00;99.90;;;;;;5060045;28;20202;-77
2022/06/13 13:08:46;;;;;;;4.72;0.90;;;19.10;99.90;;;;;;5062555;28;20217;-77
2022/06/13 13:11:49;;;;;;;8.23;1.87;;;19.00;99.90;;;;;;5077852;28;20178;-76
2022/06/13 13:15:10;;;;;;;4.53;1.10;;;18.70;99.90;;;;;;5072755;28;20204;-76
2022/06/13 13:18:03;;;;;;;15.23;1.50;;;18.70;99.90;;;;;;5063065;28;20249;-76
2022/06/13 13:21:06;;;;;;;5.60;0.87;;;18.80;99.90;;;;;;5063909;28;20716;-75
2022/06/13 13:24:27;;;;;;;7.07;0.80;;;18.70;99.90;;;;;;5060060;28;20186;-78
2022/06/13 13:27:15;;;;;;;4.50;0.77;;;18.80;99.90;;;;;;5057205;28;20202;-78
2022/06/13 13:30:18;;;;;;;5.67;1.30;;;18.70;99.90;;;;;;5058500;28;20193;-78
2022/06/13 13:33:19;;;;;;;4.73;0.93;;;18.70;99.90;;;;;;5054053;28;20232;-76
2022/06/13 13:36:35;;;;;;;4.30;1.00;;;18.70;99.90;;;;;;5062257;28;20257;-79
2022/06/13 13:39:47;;;;;;;10.43;1.87;;;18.70;99.90;;;;;;5063979;28;20588;-78
2022/06/13 13:42:38;;;;;;;6.43;1.20;;;18.80;99.90;;;;;;5056565;28;20592;-79
2022/06/13 13:45:38;;;;;;;6.37;1.10;;;18.80;99.90;;;;;;5063004;28;20195;-79
2022/06/13 13:48:31;;;;;;;4.23;0.93;;;18.90;99.90;;;;;;5053773;28;20265;-79
2022/06/13 13:51:24;;;;;;;5.55;1.08;;;18.90;99.90;;;;;;5057610;28;20194;-79
2022/06/13 13:54:28;;;;;;;6.97;1.25;;;19.00;99.90;;;;;;5048832;28;20754;-79
2022/06/13 13:57:36;;;;;;;5.47;1.23;;;18.90;99.90;;;;;;5052608;28;20238;-78
2022/06/13 14:00:23;;;;;;;8.57;1.50;;;18.80;99.90;;;;;;5055549;28;20660;-80
2022/06/13 14:03:37;;;;;;;7.03;1.10;;;18.80;99.90;;;;;;5062895;28;20187;-79
2022/06/13 14:06:32;;;;;;;10.38;1.58;;;18.60;99.90;;;;;;5055457;28;20233;-79
2022/06/13 14:09:19;;;;;;;6.07;1.37;;;18.50;99.90;;;;;;5049581;28;20326;-80
2022/06/13 14:12:13;;;;;;;6.57;1.33;;;18.50;99.90;;;;;;5053946;28;20259;-80
2022/06/13 14:15:01;;;;;;;11.30;2.27;;;18.40;99.90;;;;;;5055501;28;20586;-79
2022/06/13 14:17:51;;;;;;;4.30;1.20;;;18.50;99.90;;;;;;5064607;28;20245;-79
2022/06/13 14:20:35;;;;;;;15.10;1.73;;;18.50;99.90;;;;;;5062513;28;20274;-79
2022/06/13 14:23:42;;;;;;;5.40;1.00;;;18.50;99.90;;;;;;5051437;28;20182;-80
2022/06/13 14:26:32;;;;;;;5.93;1.90;;;18.50;99.90;;;;;;5048703;28;20201;-79
2022/06/13 14:29:28;;;;;;;4.13;1.00;;;18.50;99.90;;;;;;5069733;28;20226;-79
2022/06/13 14:32:33;;;;;;;4.60;1.20;;;18.50;99.90;;;;;;5052938;28;20289;-80
2022/06/13 14:35:48;;;;;;;5.27;1.10;;;18.50;99.90;;;;;;5052100;28;20194;-79
2022/06/13 14:38:39;;;;;;;2.97;1.20;;;18.40;99.90;;;;;;5052251;28;20225;-79
2022/06/13 14:41:35;;;;;;;3.43;0.90;;;18.40;99.90;;;;;;5056333;28;20205;-79
2022/06/13 14:44:37;;;;;;;7.07;0.90;;;18.40;99.90;;;;;;5056531;28;20233;-79
2022/06/13 14:47:46;;;;;;;3.77;1.20;;;18.40;99.90;;;;;;5047837;28;20589;-79
2022/06/13 14:50:54;;;;;;;4.00;1.10;;;18.40;99.90;;;;;;5045079;28;20190;-79
2022/06/13 14:53:48;;;;;;;5.53;1.20;;;18.40;99.90;;;;;;5058189;28;20178;-78
2022/06/13 14:56:36;;;;;;;3.13;0.93;;;18.40;99.90;;;;;;5049893;28;20262;-79
2022/06/13 14:59:20;;;;;;;4.73;1.17;;;18.30;99.90;;;;;;5053638;28;20210;-79
2022/06/13 15:02:11;;;;;;;7.00;1.27;;;18.30;99.90;;;;;;5051055;28;20198;-79
2022/06/13 15:05:10;;;;;;;2.70;1.20;;;18.40;99.90;;;;;;5050705;28;20198;-82
2022/06/13 15:08:05;;;;;;;3.10;0.93;;;18.30;99.90;;;;;;5056010;28;20244;-82
2022/06/13 15:10:57;;;;;;;5.20;1.00;;;18.30;99.90;;;;;;5049302;28;20190;-76
2022/06/13 15:13:44;;;;;;;4.37;0.90;;;18.30;99.90;;;;;;5052818;28;20174;-76
2022/06/13 15:16:33;;;;;;;7.33;1.30;;;18.30;99.90;;;;;;5053749;28;20185;-76
2022/06/13 15:19:22;;;;;;;5.25;0.75;;;18.40;99.90;;;;;;5045562;28;20222;-76